Time;durP1;ratioP1;P1;durP2;ratioP2;P2;SDS_P1;SDS_P2;PMS_P1;PMS_P2;Temp;Humidity;BMP_temperature;BMP_pressure;BME280_temperature;BME280_humidity;BME280_pressure;Samples;Min_cycle;Max_cycle;Signal;HPM_P1;HPM_P2
2022/02/15 00:00:31;;;;;;;2.67;1.70;;;-10.20;99.90;;;;;;5032148;28;20021;-73
2022/02/15 00:02:57;;;;;;;1.45;1.27;;;-10.20;99.90;;;;;;5032181;28;20077;-74
2022/02/15 00:05:23;;;;;;;3.63;1.63;;;-10.30;99.90;;;;;;5031279;28;20024;-74
2022/02/15 00:07:49;;;;;;;2.10;1.40;;;-10.30;99.90;;;;;;5031901;28;20034;-74
2022/02/15 00:10:15;;;;;;;3.17;1.35;;;-10.30;99.90;;;;;;5031959;28;20389;-74
2022/02/15 00:12:41;;;;;;;2.40;1.40;;;-10.30;99.90;;;;;;5031773;28;20105;-73
2022/02/15 00:15:08;;;;;;;2.22;1.50;;;-10.40;99.90;;;;;;5032015;28;20025;-74
2022/02/15 00:17:35;;;;;;;3.17;1.60;;;-10.40;99.90;;;;;;5032126;28;20060;-74
2022/02/15 00:20:02;;;;;;;1.60;1.50;;;-10.50;99.90;;;;;;5014235;28;20046;-74
2022/02/15 00:22:27;;;;;;;1.52;1.42;;;-10.50;99.90;;;;;;5031763;28;20029;-74
2022/02/15 00:24:53;;;;;;;1.30;1.20;;;-10.50;99.90;;;;;;5031984;28;20017;-74
2022/02/15 00:27:19;;;;;;;1.55;1.45;;;-10.50;99.90;;;;;;5032111;28;20480;-74
2022/02/15 00:29:44;;;;;;;1.63;1.40;;;-10.50;99.90;;;;;;5031614;28;20014;-74
2022/02/15 00:32:10;;;;;;;1.38;1.27;;;-10.50;99.90;;;;;;5031886;28;20040;-74
2022/02/15 00:34:36;;;;;;;2.47;1.35;;;-10.50;99.90;;;;;;5031889;28;20408;-74
2022/02/15 00:37:02;;;;;;;1.52;1.42;;;-10.50;99.90;;;;;;5031476;28;20473;-74
2022/02/15 00:39:28;;;;;;;1.38;1.38;;;-10.60;99.90;;;;;;5031661;28;20095;-74
2022/02/15 00:41:54;;;;;;;2.70;1.50;;;-10.60;99.90;;;;;;5031565;28;20459;-74
2022/02/15 00:44:20;;;;;;;2.17;1.23;;;-10.60;99.90;;;;;;5031683;28;20017;-74
2022/02/15 00:46:46;;;;;;;1.88;1.55;;;-10.60;99.90;;;;;;5031498;28;20635;-74
2022/02/15 00:49:12;;;;;;;3.83;1.25;;;-10.50;99.90;;;;;;5031780;28;20053;-74
2022/02/15 00:51:37;;;;;;;1.40;1.30;;;-10.50;99.90;;;;;;5031652;28;20111;-74
2022/02/15 00:54:04;;;;;;;1.33;1.23;;;-10.50;99.90;;;;;;5031468;28;20517;-74
2022/02/15 00:56:30;;;;;;;1.60;1.50;;;-10.50;99.90;;;;;;5031792;28;20408;-74
2022/02/15 00:58:56;;;;;;;3.10;1.50;;;-10.50;99.90;;;;;;5031478;28;20025;-74
2022/02/15 01:01:22;;;;;;;3.08;1.52;;;-10.40;99.90;;;;;;5031625;28;20555;-71
2022/02/15 01:03:49;;;;;;;1.80;1.20;;;-10.50;99.90;;;;;;5031486;28;20049;-69
2022/02/15 01:06:15;;;;;;;4.05;1.30;;;-10.40;99.90;;;;;;5031517;28;20022;-68
2022/02/15 01:08:42;;;;;;;1.60;1.50;;;-10.30;99.90;;;;;;5031451;28;20068;-69
2022/02/15 01:11:09;;;;;;;1.70;1.55;;;-10.30;99.90;;;;;;5031502;28;20032;-69
2022/02/15 01:13:35;;;;;;;2.28;1.35;;;-10.20;99.90;;;;;;5031538;28;20021;-68
2022/02/15 01:16:01;;;;;;;3.42;1.50;;;-10.20;99.90;;;;;;5032198;28;20022;-68
2022/02/15 01:18:28;;;;;;;1.60;1.50;;;-10.20;99.90;;;;;;5035076;28;20539;-68
2022/02/15 01:20:55;;;;;;;1.42;1.35;;;-10.30;99.90;;;;;;5034891;28;20393;-69
2022/02/15 01:23:21;;;;;;;2.63;1.30;;;-10.30;99.90;;;;;;5034925;28;20014;-68
2022/02/15 01:25:47;;;;;;;1.50;1.40;;;-10.40;99.90;;;;;;5035105;28;20029;-68
2022/02/15 01:28:14;;;;;;;1.50;1.33;;;-10.50;99.90;;;;;;5034843;28;20036;-68
2022/02/15 01:30:39;;;;;;;2.28;1.38;;;-10.60;99.90;;;;;;5034663;28;20025;-71
2022/02/15 01:33:05;;;;;;;1.33;1.23;;;-10.50;99.90;;;;;;5034831;28;20032;-71
2022/02/15 01:35:31;;;;;;;2.35;1.30;;;-10.50;99.90;;;;;;5034857;28;20524;-71
2022/02/15 01:37:58;;;;;;;1.63;1.42;;;-10.50;99.90;;;;;;5016508;28;20044;-70
2022/02/15 01:40:24;;;;;;;1.50;1.40;;;-10.50;99.90;;;;;;5034696;28;20070;-70
2022/02/15 01:42:50;;;;;;;1.48;1.38;;;-10.60;99.90;;;;;;5034535;28;20037;-71
2022/02/15 01:45:18;;;;;;;1.63;1.30;;;-10.70;99.90;;;;;;5034568;28;20111;-71
2022/02/15 01:47:45;;;;;;;1.52;1.42;;;-10.60;99.90;;;;;;5034333;28;20499;-72
2022/02/15 01:50:12;;;;;;;1.55;1.40;;;-10.60;99.90;;;;;;5034443;28;20397;-72
2022/02/15 01:52:38;;;;;;;1.50;1.40;;;-10.60;99.90;;;;;;5034425;28;20033;-72
2022/02/15 01:55:07;;;;;;;1.35;1.33;;;-10.60;99.90;;;;;;5034325;28;20100;-72
2022/02/15 01:57:32;;;;;;;3.22;1.40;;;-10.60;99.90;;;;;;5034255;28;20032;-71
2022/02/15 01:59:59;;;;;;;1.60;1.40;;;-10.60;99.90;;;;;;5034225;28;20100;-71
2022/02/15 02:02:28;;;;;;;1.35;1.25;;;-10.60;99.90;;;;;;5034185;28;20032;-71
2022/02/15 02:07:39;;;;;;;3.40;1.45;;;-10.50;99.90;;;;;;5034521;28;20400;-71
2022/02/15 02:10:06;;;;;;;1.20;1.20;;;-10.50;99.90;;;;;;5034008;28;20059;-71
2022/02/15 02:12:32;;;;;;;1.73;1.30;;;-10.50;99.90;;;;;;5033966;28;20472;-71
2022/02/15 02:15:16;;;;;;;1.98;1.50;;;-10.50;99.90;;;;;;5016251;28;20029;-71
2022/02/15 02:17:42;;;;;;;2.17;1.40;;;-10.50;99.90;;;;;;5034385;28;20124;-71
2022/02/15 02:20:08;;;;;;;2.33;1.52;;;-10.50;99.90;;;;;;5033953;28;20464;-71
2022/02/15 02:22:34;;;;;;;1.63;1.42;;;-10.60;99.90;;;;;;5034124;28;20075;-71
2022/02/15 02:54:07;;;;;;;1.25;1.25;;;-11.00;99.90;;;;;;5028786;28;20049;-69
2022/02/15 02:56:33;;;;;;;1.67;1.38;;;-10.90;99.90;;;;;;5033449;28;20029;-70
2022/02/15 02:58:58;;;;;;;2.13;1.50;;;-10.90;99.90;;;;;;5033064;28;20018;-69
2022/02/15 03:01:24;;;;;;;1.77;1.27;;;-10.90;99.90;;;;;;5033270;28;20496;-69
2022/02/15 03:37:29;;;;;;;1.63;1.50;;;-10.90;99.90;;;;;;5587406;22;20504;-67
2022/02/15 03:39:55;;;;;;;1.63;1.40;;;-10.90;99.90;;;;;;5012447;28;20037;-65
2022/02/15 03:45:05;;;;;;;1.40;1.30;;;-11.00;99.90;;;;;;5012971;28;20036;-66
2022/02/15 03:47:31;;;;;;;2.33;1.40;;;-11.00;99.90;;;;;;5012673;28;20026;-66
2022/02/15 03:49:57;;;;;;;1.35;1.25;;;-11.00;99.90;;;;;;5012643;28;20022;-66
2022/02/15 03:52:23;;;;;;;2.55;1.25;;;-10.90;99.90;;;;;;5012521;28;20034;-66
2022/02/15 03:54:49;;;;;;;3.17;1.40;;;-10.90;99.90;;;;;;5012650;28;20018;-67
2022/02/15 03:57:14;;;;;;;4.28;1.58;;;-10.90;99.90;;;;;;5012410;28;20393;-67
2022/02/15 03:59:40;;;;;;;1.73;1.50;;;-10.80;99.90;;;;;;5012571;28;20029;-67
2022/02/15 04:02:06;;;;;;;1.60;1.17;;;-10.80;99.90;;;;;;5012532;28;20022;-67
2022/02/15 04:04:32;;;;;;;1.33;1.23;;;-10.90;99.90;;;;;;5011330;28;20026;-67
2022/02/15 04:06:58;;;;;;;2.28;1.40;;;-10.80;99.90;;;;;;5012309;28;20386;-67
2022/02/15 04:09:24;;;;;;;1.20;1.20;;;-10.80;99.90;;;;;;5011390;28;20018;-67
2022/02/15 04:11:50;;;;;;;2.15;1.50;;;-10.70;99.90;;;;;;5012347;28;20096;-67
2022/02/15 04:14:15;;;;;;;2.90;1.38;;;-10.70;99.90;;;;;;5012313;28;20026;-66
2022/02/15 04:16:41;;;;;;;1.23;1.20;;;-10.70;99.90;;;;;;5012431;28;20034;-66
2022/02/15 04:19:07;;;;;;;1.40;1.27;;;-10.70;99.90;;;;;;5012036;28;20057;-66
2022/02/15 04:21:32;;;;;;;1.50;1.40;;;-10.70;99.90;;;;;;5012364;28;20025;-66
2022/02/15 04:23:59;;;;;;;2.15;1.33;;;-10.70;99.90;;;;;;5012135;28;20018;-66
2022/02/15 04:26:25;;;;;;;1.15;1.15;;;-10.60;99.90;;;;;;5012509;28;20030;-67
2022/02/15 04:28:50;;;;;;;1.75;1.50;;;-10.60;99.90;;;;;;5012201;28;20056;-67
2022/02/15 04:31:16;;;;;;;2.63;1.48;;;-10.60;99.90;;;;;;5012034;28;20065;-67
2022/02/15 04:33:42;;;;;;;3.08;1.50;;;-10.70;99.90;;;;;;5012182;28;20053;-67
2022/02/15 04:36:08;;;;;;;1.52;1.25;;;-10.70;99.90;;;;;;5012185;28;20429;-67
2022/02/15 04:38:33;;;;;;;3.63;1.42;;;-10.70;99.90;;;;;;4994290;28;20054;-67
2022/02/15 04:40:59;;;;;;;4.40;1.48;;;-10.70;99.90;;;;;;5012003;28;20034;-67
2022/02/15 04:43:26;;;;;;;1.40;1.30;;;-10.70;99.90;;;;;;5011984;28;20029;-67
2022/02/15 04:45:52;;;;;;;1.27;1.27;;;-10.60;99.90;;;;;;5012341;28;20026;-67
2022/02/15 04:48:18;;;;;;;1.73;1.63;;;-10.60;99.90;;;;;;5011800;28;20072;-67
2022/02/15 04:50:44;;;;;;;2.10;1.10;;;-10.60;99.90;;;;;;5012368;28;20057;-66
2022/02/15 04:53:10;;;;;;;2.72;1.33;;;-10.60;99.90;;;;;;5015764;28;20034;-66
2022/02/15 04:55:35;;;;;;;1.88;1.40;;;-10.50;99.90;;;;;;5016086;28;20037;-66
2022/02/15 04:58:01;;;;;;;1.95;1.58;;;-10.60;99.90;;;;;;5015539;28;20101;-66
2022/02/15 05:00:27;;;;;;;2.83;1.45;;;-10.60;99.90;;;;;;5015995;28;20037;-67
2022/02/15 05:02:52;;;;;;;1.50;1.40;;;-10.60;99.90;;;;;;5015673;28;20033;-67
2022/02/15 05:05:18;;;;;;;5.95;1.42;;;-10.60;99.90;;;;;;5015581;28;20026;-67
2022/02/15 05:07:44;;;;;;;5.53;1.50;;;-10.60;99.90;;;;;;5015789;28;20026;-67
2022/02/15 05:10:10;;;;;;;1.70;1.40;;;-10.60;99.90;;;;;;5015341;28;20026;-67
2022/02/15 05:12:37;;;;;;;3.97;1.88;;;-10.50;99.90;;;;;;5015528;28;20034;-67
2022/02/15 05:15:09;;;;;;;3.65;1.60;;;-10.50;99.90;;;;;;5015161;28;20033;-66
2022/02/15 05:17:37;;;;;;;3.55;1.60;;;-10.50;99.90;;;;;;5015309;28;20026;-66
2022/02/15 05:20:04;;;;;;;2.78;1.30;;;-10.50;99.90;;;;;;5015454;28;20096;-67
2022/02/15 05:22:30;;;;;;;3.50;1.50;;;-10.50;99.90;;;;;;5015195;28;20080;-67
2022/02/15 05:24:56;;;;;;;5.03;1.85;;;-10.50;99.90;;;;;;5015213;28;20022;-66
2022/02/15 05:27:21;;;;;;;1.48;1.27;;;-10.60;99.90;;;;;;5014834;28;20542;-66
2022/02/15 05:29:47;;;;;;;1.60;1.50;;;-10.60;99.90;;;;;;5014970;28;20038;-66
2022/02/15 05:32:13;;;;;;;2.78;1.50;;;-10.50;99.90;;;;;;5014563;28;20523;-65
2022/02/15 05:34:42;;;;;;;1.40;1.30;;;-10.50;99.90;;;;;;5014999;28;20021;-64
2022/02/15 05:37:08;;;;;;;3.72;1.50;;;-10.50;99.90;;;;;;5015665;28;20053;-65
2022/02/15 05:39:33;;;;;;;1.27;1.20;;;-10.50;99.90;;;;;;5034630;28;20096;-66
2022/02/15 05:41:59;;;;;;;2.13;1.50;;;-9.30;99.90;;;;;;5014395;28;20113;-64
2022/02/15 05:44:25;;;;;;;1.40;1.30;;;-9.00;99.90;;;;;;5030650;28;20420;-66
2022/02/15 05:46:51;;;;;;;3.38;1.40;;;-9.40;99.90;;;;;;5014655;28;20024;-65
2022/02/15 05:49:16;;;;;;;1.58;1.33;;;-9.60;99.90;;;;;;5028143;28;20075;-65
2022/02/15 05:51:42;;;;;;;2.63;1.50;;;-9.80;99.90;;;;;;5029980;28;20034;-67
2022/02/15 05:54:08;;;;;;;1.60;1.50;;;-9.90;99.90;;;;;;5032040;28;20507;-65
2022/02/15 05:56:33;;;;;;;2.85;1.90;;;-10.10;99.90;;;;;;5026388;28;20064;-66
2022/02/15 05:59:00;;;;;;;1.80;1.67;;;-10.10;99.90;;;;;;5028310;28;20515;-67
2022/02/15 06:01:26;;;;;;;2.72;1.98;;;-10.10;99.90;;;;;;5027414;28;20542;-64
2022/02/15 06:04:10;;;;;;;4.22;1.52;;;-10.10;99.90;;;;;;5029353;28;20120;-64
2022/02/15 06:06:36;;;;;;;3.38;1.70;;;-10.00;99.90;;;;;;5028283;28;20491;-65
2022/02/15 06:09:02;;;;;;;2.70;1.75;;;-10.10;99.90;;;;;;5033433;28;20017;-64
2022/02/15 06:11:28;;;;;;;4.80;1.77;;;-10.10;99.90;;;;;;5033554;28;20467;-64
2022/02/15 06:13:55;;;;;;;4.85;1.88;;;-10.10;99.90;;;;;;5031066;28;20052;-65
2022/02/15 06:16:24;;;;;;;4.55;1.90;;;-10.10;99.90;;;;;;5025422;28;20038;-65
2022/02/15 06:18:51;;;;;;;2.30;1.77;;;-10.10;99.90;;;;;;5010840;28;20029;-65
2022/02/15 06:21:17;;;;;;;2.40;1.50;;;-10.00;99.90;;;;;;5033538;28;20048;-66
2022/02/15 06:23:43;;;;;;;2.08;1.77;;;-10.00;99.90;;;;;;5033951;28;20599;-66
2022/02/15 06:26:09;;;;;;;4.22;1.80;;;-10.00;99.90;;;;;;5034028;28;20052;-64
2022/02/15 06:28:35;;;;;;;3.40;1.55;;;-9.90;99.90;;;;;;5033743;28;20029;-64
2022/02/15 06:31:00;;;;;;;2.80;2.00;;;-9.20;99.90;;;;;;5034053;28;20030;-65
2022/02/15 06:33:26;;;;;;;3.30;2.13;;;-9.20;99.90;;;;;;5033587;28;20417;-64
2022/02/15 06:35:52;;;;;;;1.70;1.60;;;-9.30;99.90;;;;;;5033753;28;20061;-67
2022/02/15 06:38:18;;;;;;;2.97;1.70;;;-9.50;99.90;;;;;;5033153;28;20053;-67
2022/02/15 06:40:44;;;;;;;2.70;1.55;;;-9.60;99.90;;;;;;5033684;28;20017;-65
2022/02/15 06:43:10;;;;;;;2.45;1.90;;;-9.60;99.90;;;;;;5016830;28;20481;-65
2022/02/15 06:45:37;;;;;;;2.60;2.30;;;-9.60;99.90;;;;;;5013572;28;20025;-65
2022/02/15 06:48:03;;;;;;;8.18;1.73;;;-9.60;99.90;;;;;;4995429;28;20030;-65
2022/02/15 06:50:28;;;;;;;4.28;1.65;;;-9.60;99.90;;;;;;5013579;28;20022;-65
2022/02/15 06:52:54;;;;;;;5.50;2.40;;;-9.40;99.90;;;;;;5013193;28;20469;-65
2022/02/15 06:55:20;;;;;;;9.32;4.28;;;-8.80;99.90;;;;;;5012957;28;20080;-65
2022/02/15 06:57:45;;;;;;;7.93;4.63;;;-8.90;99.90;;;;;;5020413;28;20092;-66
2022/02/15 07:00:12;;;;;;;9.50;5.05;;;-9.10;99.90;;;;;;5032547;28;20481;-65
2022/02/15 07:02:37;;;;;;;23.13;9.38;;;-9.20;99.90;;;;;;5032460;28;20392;-65
2022/02/15 07:05:03;;;;;;;74.63;24.77;;;-9.30;99.90;;;;;;5032398;28;20017;-65
2022/02/15 07:07:29;;;;;;;23.80;9.93;;;-9.40;99.90;;;;;;5014793;28;20453;-64
2022/02/15 07:09:55;;;;;;;15.57;7.05;;;-9.40;99.90;;;;;;5032210;28;20096;-64
2022/02/15 07:12:22;;;;;;;25.88;9.93;;;-9.40;99.90;;;;;;5032003;28;20040;-64
2022/02/15 07:14:48;;;;;;;84.60;28.58;;;-9.40;99.90;;;;;;5031384;28;20029;-63
2022/02/15 07:17:14;;;;;;;48.42;15.27;;;-9.40;99.90;;;;;;5031712;28;20036;-64
2022/02/15 07:19:39;;;;;;;14.55;5.82;;;-9.30;99.90;;;;;;5032047;28;20392;-64
2022/02/15 07:22:06;;;;;;;15.07;7.85;;;-9.40;99.90;;;;;;5016981;28;20092;-64
2022/02/15 07:24:32;;;;;;;11.85;4.78;;;-9.40;99.90;;;;;;5015149;28;20488;-64
2022/02/15 07:26:58;;;;;;;9.70;3.42;;;-9.30;99.90;;;;;;5032032;28;20026;-64
2022/02/15 07:29:23;;;;;;;5.28;2.78;;;-9.30;99.90;;;;;;5022562;28;20024;-65
2022/02/15 07:31:50;;;;;;;9.70;2.97;;;-9.30;99.90;;;;;;4995248;28;20497;-65
2022/02/15 07:34:17;;;;;;;5.70;3.00;;;-9.20;99.90;;;;;;5012368;28;20495;-65
2022/02/15 07:36:44;;;;;;;9.85;3.67;;;-9.10;99.90;;;;;;5012577;28;20440;-64
2022/02/15 07:39:13;;;;;;;9.80;3.38;;;-9.10;99.90;;;;;;5019913;28;20032;-65
2022/02/15 07:41:38;;;;;;;5.85;3.30;;;-9.00;99.90;;;;;;5013432;28;20469;-65
2022/02/15 07:44:04;;;;;;;12.57;3.15;;;-9.00;99.90;;;;;;5012309;28;20010;-64
2022/02/15 07:46:30;;;;;;;5.28;2.88;;;-9.10;99.90;;;;;;5012257;28;20029;-65
2022/02/15 07:48:56;;;;;;;4.43;2.90;;;-9.10;99.90;;;;;;5028498;28;20096;-65
2022/02/15 07:51:22;;;;;;;6.78;3.97;;;-9.10;99.90;;;;;;5004594;28;20094;-64
2022/02/15 07:53:49;;;;;;;29.73;17.60;;;-9.00;99.90;;;;;;5021643;28;20056;-64
2022/02/15 07:56:14;;;;;;;3.83;2.47;;;-9.00;99.90;;;;;;5032045;28;20026;-64
2022/02/15 07:58:40;;;;;;;6.40;2.25;;;-8.90;99.90;;;;;;5014222;28;20033;-64
2022/02/15 08:01:06;;;;;;;2.70;1.42;;;-8.80;99.90;;;;;;5032132;28;20029;-65
2022/02/15 08:03:32;;;;;;;3.22;1.58;;;-8.60;99.90;;;;;;5031995;28;20060;-64
2022/02/15 08:05:58;;;;;;;4.40;1.50;;;-8.50;99.90;;;;;;5032011;28;20108;-65
2022/02/15 08:08:24;;;;;;;1.30;1.20;;;-8.40;99.90;;;;;;5031956;28;20049;-64
2022/02/15 08:10:51;;;;;;;2.63;1.45;;;-8.40;99.90;;;;;;5032089;28;20048;-65
2022/02/15 08:13:21;;;;;;;7.32;1.60;;;-8.30;99.90;;;;;;5031617;28;20600;-64
2022/02/15 08:15:49;;;;;;;1.77;1.50;;;-8.30;99.90;;;;;;5032140;28;20040;-65
2022/02/15 08:18:15;;;;;;;1.95;1.25;;;-8.30;99.90;;;;;;5031615;28;20037;-65
2022/02/15 08:20:42;;;;;;;2.42;1.27;;;-8.20;99.90;;;;;;5031077;28;20026;-65
2022/02/15 08:23:07;;;;;;;5.95;1.63;;;-8.20;99.90;;;;;;5030486;28;20071;-65
2022/02/15 08:25:34;;;;;;;2.00;1.58;;;-8.10;99.90;;;;;;5030072;28;20485;-65
2022/02/15 08:28:01;;;;;;;9.35;1.55;;;-8.10;99.90;;;;;;5018849;28;20362;-65
2022/02/15 08:30:27;;;;;;;4.40;1.48;;;-8.00;99.90;;;;;;5031009;28;20372;-65
2022/02/15 08:32:53;;;;;;;8.85;1.85;;;-7.90;99.90;;;;;;5028160;28;20033;-66
2022/02/15 08:35:19;;;;;;;2.83;1.40;;;-7.90;99.90;;;;;;5013465;28;20055;-66
2022/02/15 08:37:45;;;;;;;12.90;2.20;;;-7.90;99.90;;;;;;5031295;28;20088;-64
2022/02/15 08:40:12;;;;;;;2.35;1.25;;;-7.80;99.90;;;;;;5031579;28;20053;-65
2022/02/15 08:42:39;;;;;;;4.53;1.30;;;-7.80;99.90;;;;;;5031727;28;20412;-65
2022/02/15 08:45:07;;;;;;;3.28;1.35;;;-7.80;99.90;;;;;;5027903;28;20461;-65
2022/02/15 08:47:34;;;;;;;8.63;1.70;;;-7.80;99.90;;;;;;5023093;28;20043;-66
2022/02/15 08:49:59;;;;;;;4.00;1.65;;;-7.70;99.90;;;;;;5030720;28;20473;-65
2022/02/15 08:52:26;;;;;;;6.07;1.50;;;-7.80;99.90;;;;;;5013176;28;20091;-65
2022/02/15 08:54:54;;;;;;;1.33;1.27;;;-7.70;99.90;;;;;;5030896;28;20057;-65
2022/02/15 08:57:20;;;;;;;2.50;1.60;;;-7.70;99.90;;;;;;5013643;28;20025;-65
2022/02/15 08:59:46;;;;;;;4.07;1.40;;;-7.60;99.90;;;;;;5031240;28;20021;-65
2022/02/15 09:02:11;;;;;;;1.23;1.20;;;-7.60;99.90;;;;;;5031428;28;20369;-65
2022/02/15 09:04:38;;;;;;;1.50;1.40;;;-7.60;99.90;;;;;;5027911;28;20045;-65
2022/02/15 09:07:05;;;;;;;2.30;1.40;;;-7.60;99.90;;;;;;5030946;28;20115;-65
2022/02/15 09:09:31;;;;;;;3.85;1.42;;;-7.50;99.90;;;;;;5031260;28;20055;-65
2022/02/15 09:11:56;;;;;;;4.03;1.40;;;-7.60;99.90;;;;;;5010541;28;20119;-66
2022/02/15 09:14:22;;;;;;;4.40;1.00;;;-7.60;99.90;;;;;;5031255;28;20029;-66
2022/02/15 09:16:48;;;;;;;2.75;1.45;;;-7.30;99.90;;;;;;5013693;28;20061;-65
2022/02/15 09:19:14;;;;;;;2.25;1.40;;;-7.00;99.90;;;;;;5031107;28;20025;-65
2022/02/15 09:21:40;;;;;;;4.32;1.55;;;-7.00;99.90;;;;;;5031707;28;20112;-67
2022/02/15 09:24:09;;;;;;;1.65;1.15;;;-7.00;99.90;;;;;;5031381;28;20495;-67
2022/02/15 09:26:35;;;;;;;1.65;1.13;;;-7.10;99.90;;;;;;5031186;28;20026;-66
2022/02/15 09:29:03;;;;;;;1.42;1.30;;;-7.10;99.90;;;;;;5031250;28;20028;-66
2022/02/15 09:31:28;;;;;;;4.97;1.60;;;-7.20;99.90;;;;;;5031050;28;20812;-66
2022/02/15 09:33:54;;;;;;;8.38;1.60;;;-7.30;99.90;;;;;;5031142;28;20112;-67
2022/02/15 09:36:24;;;;;;;4.88;1.60;;;-7.30;99.90;;;;;;5031018;28;20022;-66
2022/02/15 09:38:50;;;;;;;1.67;1.58;;;-7.40;99.90;;;;;;5034644;28;20042;-66
2022/02/15 09:41:16;;;;;;;2.15;1.30;;;-7.30;99.90;;;;;;5034627;28;20037;-66
2022/02/15 09:43:42;;;;;;;2.60;1.40;;;-7.30;99.90;;;;;;5034565;28;20051;-68
2022/02/15 09:46:13;;;;;;;4.40;1.80;;;-7.40;99.90;;;;;;5034647;28;20072;-67
2022/02/15 09:48:40;;;;;;;3.17;1.50;;;-7.30;99.90;;;;;;5034347;28;20036;-67
2022/02/15 09:51:07;;;;;;;5.65;1.58;;;-7.30;99.90;;;;;;5034253;28;20124;-64
2022/02/15 09:53:33;;;;;;;1.75;1.25;;;-7.20;99.90;;;;;;5034418;28;20029;-68
2022/02/15 09:55:59;;;;;;;6.57;1.63;;;-6.50;99.90;;;;;;5034520;28;20021;-68
2022/02/15 09:58:25;;;;;;;5.65;1.60;;;-6.60;99.90;;;;;;5033927;28;20104;-68
2022/02/15 10:00:52;;;;;;;2.35;1.50;;;-6.80;99.90;;;;;;5036162;28;20495;-68
2022/02/15 10:03:19;;;;;;;5.03;1.58;;;-6.90;99.90;;;;;;5029397;28;20044;-67
2022/02/15 10:05:49;;;;;;;3.72;1.70;;;-7.00;99.90;;;;;;5034796;28;20025;-67
2022/02/15 10:08:23;;;;;;;1.30;1.20;;;-7.00;99.90;;;;;;5027638;28;20032;-68
2022/02/15 10:10:49;;;;;;;3.13;1.50;;;-7.00;99.90;;;;;;5020129;28;20068;-67
2022/02/15 10:13:14;;;;;;;2.40;1.40;;;-7.10;99.90;;;;;;5014679;28;20131;-69
2022/02/15 10:15:42;;;;;;;1.27;1.17;;;-7.00;99.90;;;;;;5027516;28;20030;-68
2022/02/15 10:18:11;;;;;;;1.25;1.17;;;-7.10;99.90;;;;;;5032902;28;20362;-68
2022/02/15 10:20:38;;;;;;;2.67;1.60;;;-7.00;99.90;;;;;;5033168;28;20021;-68
2022/02/15 10:23:17;;;;;;;1.83;1.40;;;-7.00;99.90;;;;;;5033430;28;20431;-69
2022/02/15 10:25:43;;;;;;;2.58;1.45;;;-6.90;99.90;;;;;;5033417;28;20064;-68
2022/02/15 10:28:14;;;;;;;4.38;1.33;;;-6.80;99.90;;;;;;5015851;28;20036;-67
2022/02/15 10:30:44;;;;;;;5.93;1.40;;;-6.80;99.90;;;;;;5033917;28;20029;-68
2022/02/15 10:33:10;;;;;;;;;;;-6.80;99.90;;;;;;5016322;28;20044;-68
2022/02/15 10:35:35;;;;;;;1.60;1.45;;;-6.80;99.90;;;;;;5033359;28;19905;-68
2022/02/15 10:38:01;;;;;;;2.60;1.42;;;-6.80;99.90;;;;;;5015663;28;20048;-69
2022/02/15 10:40:27;;;;;;;1.70;1.35;;;-6.80;99.90;;;;;;5033355;28;20029;-69
2022/02/15 10:42:53;;;;;;;2.88;1.50;;;-6.80;99.90;;;;;;5033674;28;20030;-69
2022/02/15 10:45:19;;;;;;;2.95;1.40;;;-6.80;99.90;;;;;;5015303;28;20546;-69
2022/02/15 10:47:46;;;;;;;1.00;1.00;;;-6.80;99.90;;;;;;5033239;28;20024;-69
2022/02/15 10:50:15;;;;;;;1.40;1.30;;;-6.80;99.90;;;;;;5032578;28;20456;-68
2022/02/15 10:52:42;;;;;;;3.80;1.52;;;-6.80;99.90;;;;;;5033313;28;20087;-70
2022/02/15 10:55:08;;;;;;;6.00;1.55;;;-6.70;99.90;;;;;;5033115;28;20026;-68
2022/02/15 10:57:39;;;;;;;11.88;1.90;;;-6.70;99.90;;;;;;5033158;28;20412;-68
2022/02/15 11:00:09;;;;;;;2.28;1.20;;;-6.60;99.90;;;;;;5033266;28;20076;-68
2022/02/15 11:02:38;;;;;;;16.65;1.92;;;-6.60;99.90;;;;;;5033389;28;20029;-67
2022/02/15 11:05:06;;;;;;;19.98;2.70;;;-6.60;99.90;;;;;;5032963;28;20109;-68
2022/02/15 11:07:33;;;;;;;8.18;1.58;;;-6.50;99.90;;;;;;5033203;28;20033;-68
2022/02/15 11:10:24;;;;;;;10.20;1.58;;;-6.50;99.90;;;;;;5030733;28;20038;-68
2022/02/15 11:12:52;;;;;;;2.85;1.50;;;-6.40;99.90;;;;;;5006915;28;20034;-68
2022/02/15 11:15:22;;;;;;;3.17;1.30;;;-6.40;99.90;;;;;;5024262;28;20081;-68
2022/02/15 11:17:58;;;;;;;4.35;1.20;;;-6.40;99.90;;;;;;5021676;28;20108;-68
2022/02/15 11:20:29;;;;;;;2.70;1.30;;;-6.40;99.90;;;;;;5028779;28;20514;-68
2022/02/15 11:22:59;;;;;;;1.25;1.15;;;-6.40;99.90;;;;;;5028565;28;20405;-68
2022/02/15 11:25:37;;;;;;;1.52;1.35;;;-6.50;99.90;;;;;;5029432;28;20032;-68
2022/02/15 11:28:26;;;;;;;2.88;1.58;;;-6.50;99.90;;;;;;5025734;28;20038;-69
2022/02/15 11:30:51;;;;;;;3.60;1.50;;;-6.40;99.90;;;;;;5012907;28;20030;-68
2022/02/15 11:33:39;;;;;;;4.93;1.40;;;-6.40;99.90;;;;;;5000833;28;20026;-68
2022/02/15 11:36:09;;;;;;;4.22;1.42;;;-6.30;99.90;;;;;;5020705;28;20125;-68
2022/02/15 11:38:36;;;;;;;4.10;1.58;;;-6.30;99.90;;;;;;5019410;28;20128;-68
2022/02/15 11:41:12;;;;;;;6.25;1.70;;;-6.30;99.90;;;;;;5025012;28;20516;-68
2022/02/15 11:43:38;;;;;;;2.65;1.42;;;-6.30;99.90;;;;;;5031853;28;20032;-68
2022/02/15 11:46:05;;;;;;;2.10;1.20;;;-6.30;99.90;;;;;;5031434;28;20481;-67
2022/02/15 11:48:43;;;;;;;4.35;1.35;;;-6.30;99.90;;;;;;5029934;28;20102;-67
2022/02/15 11:51:20;;;;;;;2.85;1.67;;;-6.30;99.90;;;;;;5031319;28;20376;-69
2022/02/15 11:53:56;;;;;;;1.65;1.38;;;-6.20;99.90;;;;;;5031938;28;20033;-68
2022/02/15 11:56:22;;;;;;;3.22;1.60;;;-6.20;99.90;;;;;;5031555;28;20097;-68
2022/02/15 11:58:50;;;;;;;6.03;1.60;;;-6.30;99.90;;;;;;5031729;28;20029;-69
2022/02/15 12:01:25;;;;;;;11.50;2.10;;;-6.30;99.90;;;;;;5031547;28;20428;-68
2022/02/15 12:03:52;;;;;;;2.85;1.30;;;-6.20;99.90;;;;;;5031519;28;20026;-69
2022/02/15 12:06:19;;;;;;;4.90;1.50;;;-6.20;99.90;;;;;;5031802;28;20031;-69
2022/02/15 12:08:58;;;;;;;6.88;1.60;;;-6.20;99.90;;;;;;5031727;28;20026;-67
2022/02/15 12:11:50;;;;;;;1.17;1.10;;;-6.20;99.90;;;;;;5031246;28;20460;-67
2022/02/15 12:14:18;;;;;;;5.28;1.40;;;-6.20;99.90;;;;;;5027098;28;20503;-67
2022/02/15 12:16:46;;;;;;;7.20;1.83;;;-6.20;99.90;;;;;;5031790;28;20037;-68
2022/02/15 12:19:30;;;;;;;2.63;1.17;;;-6.10;99.90;;;;;;5031402;28;20029;-67
2022/02/15 12:21:58;;;;;;;6.95;1.30;;;-6.10;99.90;;;;;;5031453;28;20040;-68
2022/02/15 12:24:25;;;;;;;1.20;1.10;;;-6.10;99.90;;;;;;5031426;28;20021;-68
2022/02/15 12:26:53;;;;;;;4.38;1.55;;;-6.20;99.90;;;;;;5031583;28;20116;-68
2022/02/15 12:29:19;;;;;;;7.78;1.40;;;-6.10;99.90;;;;;;5031209;28;20027;-68
2022/02/15 12:31:45;;;;;;;3.58;1.45;;;-6.10;99.90;;;;;;5030785;28;20037;-68
2022/02/15 12:34:13;;;;;;;1.50;1.33;;;-6.00;99.90;;;;;;5030375;28;20057;-65
2022/02/15 12:36:40;;;;;;;2.03;1.38;;;-6.00;99.90;;;;;;5031054;28;20032;-64
2022/02/15 12:39:07;;;;;;;3.90;1.40;;;-6.00;99.90;;;;;;5032598;28;20038;-62
2022/02/15 12:41:38;;;;;;;1.90;1.55;;;-6.00;99.90;;;;;;5031884;28;20076;-64
2022/02/15 12:44:05;;;;;;;;;;;-6.00;99.90;;;;;;5032412;28;20064;-64
2022/02/15 12:46:31;;;;;;;1.33;1.23;;;-6.00;99.90;;;;;;5031533;28;19908;-64
2022/02/15 12:48:59;;;;;;;2.63;1.38;;;-5.90;99.90;;;;;;5031657;28;20037;-65
2022/02/15 12:51:30;;;;;;;1.75;1.20;;;-5.90;99.90;;;;;;5031573;28;20385;-66
2022/02/15 12:53:57;;;;;;;2.47;1.50;;;-5.90;99.90;;;;;;5031452;28;20052;-69
2022/02/15 12:56:28;;;;;;;4.35;1.60;;;-5.90;99.90;;;;;;5031306;28;20013;-69
2022/02/15 12:58:56;;;;;;;2.75;1.17;;;-5.00;99.90;;;;;;5031506;28;20388;-69
2022/02/15 13:01:22;;;;;;;3.83;1.30;;;-4.80;99.90;;;;;;5031194;28;20107;-69
2022/02/15 13:03:51;;;;;;;2.53;1.52;;;-5.20;99.90;;;;;;5031242;28;20061;-69
2022/02/15 13:06:17;;;;;;;2.53;1.60;;;-5.50;99.90;;;;;;5031407;28;20032;-69
2022/02/15 13:08:50;;;;;;;3.17;1.70;;;-5.80;99.90;;;;;;5013484;28;20026;-69
2022/02/15 13:11:18;;;;;;;2.95;1.30;;;-6.00;99.90;;;;;;5031532;28;20068;-70
2022/02/15 13:13:44;;;;;;;2.00;1.45;;;-6.10;99.90;;;;;;5015811;28;20424;-70
2022/02/15 13:16:12;;;;;;;2.15;1.45;;;-6.10;99.90;;;;;;5015220;28;20030;-70
2022/02/15 13:18:46;;;;;;;2.92;1.20;;;-6.10;99.90;;;;;;5014961;28;20020;-70
2022/02/15 13:21:14;;;;;;;4.03;1.30;;;-6.20;99.90;;;;;;5014706;28;20057;-70
2022/02/15 13:23:52;;;;;;;4.57;1.50;;;-6.10;99.90;;;;;;5014654;28;20068;-70
2022/02/15 13:26:18;;;;;;;3.13;1.70;;;-6.20;99.90;;;;;;5015183;28;20080;-67
2022/02/15 13:28:44;;;;;;;2.25;1.55;;;-5.90;99.90;;;;;;5016014;28;20477;-65
2022/02/15 13:31:10;;;;;;;1.30;1.20;;;-5.90;99.90;;;;;;5015746;28;20117;-66
2022/02/15 13:33:44;;;;;;;3.25;1.40;;;-5.90;99.90;;;;;;5014752;28;20033;-66
2022/02/15 13:36:11;;;;;;;1.88;1.55;;;-5.90;99.90;;;;;;5014911;28;20053;-66
2022/02/15 13:38:40;;;;;;;1.92;1.33;;;-5.90;99.90;;;;;;5014522;28;20081;-65
2022/02/15 13:41:06;;;;;;;3.53;1.60;;;-5.90;99.90;;;;;;5014655;28;20032;-66
2022/02/15 13:43:33;;;;;;;2.40;1.45;;;-5.60;99.90;;;;;;5014136;28;20022;-66
2022/02/15 13:46:00;;;;;;;2.85;1.70;;;-5.70;99.90;;;;;;5014257;28;20022;-65
2022/02/15 13:48:26;;;;;;;1.63;1.48;;;-5.80;99.90;;;;;;5013966;28;20029;-66
2022/02/15 13:50:53;;;;;;;2.85;1.38;;;-5.80;99.90;;;;;;5027214;28;20033;-67